Time;durP1;ratioP1;P1;durP2;ratioP2;P2;SDS_P1;SDS_P2;PMS_P1;PMS_P2;Temp;Humidity;BMP_temperature;BMP_pressure;BME280_temperature;BME280_humidity;BME280_pressure;Samples;Min_cycle;Max_cycle;Signal;HPM_P1;HPM_P2
2022/06/30 00:01:44;;;;;;;;;;;22.10;97.00;;;;;;5033122;28;19962;-51
2022/06/30 00:04:28;;;;;;;;;;;22.00;97.10;;;;;;5034772;28;19917;-50
2022/06/30 00:07:12;;;;;;;;;;;22.10;97.10;;;;;;5034518;28;19921;-52
2022/06/30 00:09:56;;;;;;;;;;;22.10;97.10;;;;;;5031358;28;20000;-50
2022/06/30 00:12:41;;;;;;;;;;;22.00;97.00;;;;;;5032188;28;19959;-49
2022/06/30 00:15:25;;;;;;;;;;;22.00;97.10;;;;;;5031610;28;19931;-50
2022/06/30 00:18:09;;;;;;;;;;;21.90;97.40;;;;;;5033012;28;19927;-50
2022/06/30 00:20:53;;;;;;;;;;;21.80;97.40;;;;;;5033390;28;19920;-52
2022/06/30 00:23:38;;;;;;;;;;;21.80;97.60;;;;;;5033702;28;20375;-50
2022/06/30 00:26:22;;;;;;;;;;;21.80;97.60;;;;;;5042148;28;20065;-51
2022/06/30 00:29:06;;;;;;;;;;;21.70;97.60;;;;;;5033182;28;19920;-55
2022/06/30 00:31:50;;;;;;;;;;;21.80;97.60;;;;;;5034723;28;19924;-53
2022/06/30 00:34:35;;;;;;;;;;;21.70;97.70;;;;;;5029309;28;20000;-49
2022/06/30 00:37:19;;;;;;;;;;;21.70;97.70;;;;;;5035037;28;20016;-51
2022/06/30 00:40:04;;;;;;;;;;;21.70;97.70;;;;;;5033876;28;19929;-51
2022/06/30 00:42:48;;;;;;;;;;;21.70;97.80;;;;;;5035099;28;19920;-48
2022/06/30 00:45:38;;;;;;;;;;;21.70;97.80;;;;;;5040818;28;20371;-55
2022/06/30 00:48:23;;;;;;;;;;;21.70;97.80;;;;;;5036354;28;20023;-54
2022/06/30 00:51:07;;;;;;;;;;;21.70;97.80;;;;;;5035955;28;20438;-50
2022/06/30 00:53:52;;;;;;;;;;;21.70;97.80;;;;;;5036126;28;19935;-48
2022/06/30 00:56:39;;;;;;;;;;;21.70;97.80;;;;;;5015670;28;19963;-51
2022/06/30 00:59:24;;;;;;;;;;;21.70;97.80;;;;;;5019386;28;20009;-53
2022/06/30 01:02:08;;;;;;;;;;;21.80;97.80;;;;;;5035869;28;19916;-54
2022/06/30 01:04:53;;;;;;;;;;;21.80;97.80;;;;;;5035941;28;19924;-50
2022/06/30 01:07:38;;;;;;;;;;;21.70;97.90;;;;;;5035516;28;19912;-51
2022/06/30 01:13:36;;;;;;;;;;;21.70;98.00;;;;;;5001459;28;20411;-51
2022/06/30 01:16:22;;;;;;;;;;;21.70;97.80;;;;;;5034292;28;19963;-50
2022/06/30 01:19:06;;;;;;;;;;;21.70;98.00;;;;;;5033236;28;19963;-51
2022/06/30 01:21:57;;;;;;;;;;;21.70;97.90;;;;;;5033088;28;19911;-51
2022/06/30 01:24:42;;;;;;;;;;;21.70;97.90;;;;;;5029272;28;19971;-50
2022/06/30 01:27:26;;;;;;;;;;;21.70;97.80;;;;;;5032352;28;19966;-48
2022/06/30 01:30:11;;;;;;;;;;;21.70;97.90;;;;;;5033471;28;19960;-50
2022/06/30 01:32:55;;;;;;;;;;;21.70;98.00;;;;;;5032662;28;20475;-48
2022/06/30 01:35:40;;;;;;;;;;;21.70;98.00;;;;;;5032592;28;19936;-50
2022/06/30 01:38:24;;;;;;;;;;;21.60;98.00;;;;;;5032345;28;20022;-53
2022/06/30 01:41:08;;;;;;;;;;;21.50;98.00;;;;;;5032685;28;20296;-52
2022/06/30 01:43:52;;;;;;;;;;;21.60;98.10;;;;;;5041337;28;20257;-49
2022/06/30 01:46:37;;;;;;;;;;;21.60;98.00;;;;;;5043917;28;20406;-53
2022/06/30 01:49:21;;;;;;;;;;;21.70;98.00;;;;;;5052741;28;19942;-50
2022/06/30 01:52:05;;;;;;;;;;;21.70;97.90;;;;;;5033214;28;19963;-54
2022/06/30 01:54:49;;;;;;;;;;;21.70;97.70;;;;;;5032610;28;19916;-54
2022/06/30 01:57:35;;;;;;;;;;;21.70;97.70;;;;;;5034010;28;19920;-49
2022/06/30 02:00:20;;;;;;;;;;;21.70;97.70;;;;;;5034365;28;19916;-51
2022/06/30 02:03:04;;;;;;;;;;;21.80;97.70;;;;;;5035765;28;19920;-51
2022/06/30 02:05:49;;;;;;;;;;;21.70;97.50;;;;;;5034370;28;19920;-51
2022/06/30 02:08:33;;;;;;;;;;;21.70;97.50;;;;;;5034549;28;19934;-53
2022/06/30 02:11:17;;;;;;;;;;;21.70;97.50;;;;;;5034347;28;19959;-50
2022/06/30 02:14:02;;;;;;;;;;;21.80;97.40;;;;;;5034464;28;19959;-49
2022/06/30 02:16:46;;;;;;;;;;;21.80;97.40;;;;;;5014117;28;19964;-50
2022/06/30 02:19:30;;;;;;;;;;;21.80;97.30;;;;;;5014361;28;19971;-50
2022/06/30 02:22:14;;;;;;;;;;;21.70;97.30;;;;;;5016586;28;19923;-51
2022/06/30 02:24:58;;;;;;;;;;;21.70;97.40;;;;;;5033787;28;20046;-51
2022/06/30 02:27:43;;;;;;;;;;;21.80;97.40;;;;;;5033602;28;20638;-50
2022/06/30 02:30:27;;;;;;;;;;;21.80;97.30;;;;;;5034376;28;19912;-52
2022/06/30 02:33:13;;;;;;;;;;;21.90;97.30;;;;;;5034207;28;20429;-50
2022/06/30 02:35:57;;;;;;;;;;;21.90;97.30;;;;;;5033106;28;19955;-49
2022/06/30 02:38:41;;;;;;;;;;;22.00;97.20;;;;;;5033532;28;20608;-48
2022/06/30 02:41:25;;;;;;;;;;;22.00;97.10;;;;;;5033436;28;19958;-54
2022/06/30 02:44:10;;;;;;;;;;;22.00;97.00;;;;;;5032464;28;20006;-52
2022/06/30 02:46:54;;;;;;;;;;;22.00;97.00;;;;;;5012681;28;19916;-55
2022/06/30 02:49:39;;;;;;;;;;;22.00;96.90;;;;;;5033355;28;19967;-50
2022/06/30 02:52:23;;;;;;;;;;;21.90;96.90;;;;;;5033299;28;20446;-53
2022/06/30 02:55:08;;;;;;;;;;;22.00;96.90;;;;;;5033797;28;20414;-50
2022/06/30 02:57:52;;;;;;;;;;;22.00;96.80;;;;;;5033390;28;20287;-52
2022/06/30 03:00:37;;;;;;;;;;;22.00;96.80;;;;;;5033984;28;19967;-49
2022/06/30 03:03:21;;;;;;;;;;;22.00;96.80;;;;;;5033853;28;19924;-49
2022/06/30 03:06:05;;;;;;;;;;;21.90;96.70;;;;;;5032824;28;19960;-48
2022/06/30 03:08:50;;;;;;;;;;;21.90;96.70;;;;;;5032983;28;19919;-50
2022/06/30 03:11:34;;;;;;;;;;;21.90;96.70;;;;;;5033661;28;20280;-51
2022/06/30 03:14:18;;;;;;;;;;;21.90;96.80;;;;;;5018333;28;19916;-54
2022/06/30 03:17:03;;;;;;;;;;;21.90;96.70;;;;;;5030926;28;19963;-55
2022/06/30 03:19:47;;;;;;;;;;;21.90;96.70;;;;;;5033256;28;19962;-53
2022/06/30 03:22:31;;;;;;;;;;;21.90;96.60;;;;;;5033340;28;20292;-55
2022/06/30 03:25:16;;;;;;;;;;;21.90;96.60;;;;;;5032256;28;20446;-51
2022/06/30 03:28:02;;;;;;;;;;;21.90;96.60;;;;;;5032113;28;19978;-56
2022/06/30 03:30:47;;;;;;;;;;;21.90;96.60;;;;;;5033381;28;19982;-54
2022/06/30 03:33:31;;;;;;;;;;;21.90;96.50;;;;;;5033576;28;20296;-54
2022/06/30 03:36:15;;;;;;;;;;;22.00;96.40;;;;;;5032912;28;19920;-50
2022/06/30 03:39:00;;;;;;;;;;;21.90;96.40;;;;;;5030846;28;19983;-52
2022/06/30 03:41:44;;;;;;;;;;;21.90;96.40;;;;;;5032678;28;20272;-54
2022/06/30 03:44:28;;;;;;;;;;;21.90;96.40;;;;;;5032629;28;20415;-55
2022/06/30 03:47:12;;;;;;;;;;;21.90;96.40;;;;;;5032518;28;19928;-54
2022/06/30 03:49:57;;;;;;;;;;;22.00;96.40;;;;;;5032613;28;19932;-52
2022/06/30 03:52:41;;;;;;;;;;;22.00;96.30;;;;;;5032664;28;19920;-53
2022/06/30 03:55:25;;;;;;;;;;;22.00;96.20;;;;;;5032940;28;19940;-55
2022/06/30 03:58:10;;;;;;;;;;;22.00;96.10;;;;;;5032894;28;19942;-51
2022/06/30 04:00:54;;;;;;;;;;;22.00;96.20;;;;;;5032380;28;19916;-51
2022/06/30 04:03:38;;;;;;;;;;;21.90;96.10;;;;;;5032404;28;20376;-54
2022/06/30 04:06:23;;;;;;;;;;;21.80;96.40;;;;;;5033916;28;20335;-56
2022/06/30 04:09:07;;;;;;;;;;;21.80;96.40;;;;;;5036309;28;19920;-53
2022/06/30 04:11:51;;;;;;;;;;;21.80;96.50;;;;;;5035645;28;19919;-51
2022/06/30 04:14:36;;;;;;;;;;;21.90;96.40;;;;;;5035950;28;20427;-53
2022/06/30 04:17:20;;;;;;;;;;;22.10;96.30;;;;;;5053297;28;20588;-50
2022/06/30 04:20:05;;;;;;;;;;;22.10;96.00;;;;;;5056490;28;19931;-54
2022/06/30 04:22:50;;;;;;;;;;;22.30;96.00;;;;;;5049281;28;19996;-56
2022/06/30 04:25:34;;;;;;;;;;;22.40;95.80;;;;;;5044467;28;20052;-55
2022/06/30 04:28:18;;;;;;;;;;;22.50;95.60;;;;;;5033505;28;20364;-53
2022/06/30 04:34:05;;;;;;;;;;;22.60;95.20;;;;;;5014287;28;20399;-49
2022/06/30 04:36:50;;;;;;;;;;;22.60;95.00;;;;;;5032443;28;19920;-52
2022/06/30 04:39:34;;;;;;;;;;;22.60;95.00;;;;;;5033783;28;20300;-53
2022/06/30 04:42:18;;;;;;;;;;;22.70;94.90;;;;;;5035605;28;19915;-51
2022/06/30 04:45:03;;;;;;;;;;;22.80;94.80;;;;;;5019901;28;19916;-52
2022/06/30 04:47:47;;;;;;;;;;;22.90;94.60;;;;;;5033136;28;19920;-50
2022/06/30 04:50:31;;;;;;;;;;;22.90;94.40;;;;;;5034018;28;20003;-52
2022/06/30 04:53:15;;;;;;;;;;;22.90;94.20;;;;;;5033537;28;19950;-51
2022/06/30 04:56:00;;;;;;;;;;;22.90;93.90;;;;;;5034453;28;20108;-52
2022/06/30 04:58:44;;;;;;;;;;;22.90;94.10;;;;;;5035396;28;19919;-54
2022/06/30 05:01:28;;;;;;;;;;;22.90;94.00;;;;;;5036619;28;19947;-55
2022/06/30 05:04:13;;;;;;;;;;;22.90;94.00;;;;;;5041346;28;20300;-52
2022/06/30 05:06:57;;;;;;;;;;;22.90;93.90;;;;;;5039704;28;19931;-55
2022/06/30 05:09:41;;;;;;;;;;;22.90;94.00;;;;;;5040535;28;19920;-50
2022/06/30 05:12:26;;;;;;;;;;;22.90;93.90;;;;;;5035714;28;20312;-50
2022/06/30 05:15:10;;;;;;;;;;;23.00;93.80;;;;;;5035269;28;19943;-46
2022/06/30 05:17:54;;;;;;;;;;;23.10;93.60;;;;;;5035245;28;19920;-48
2022/06/30 05:20:39;;;;;;;;;;;23.10;93.40;;;;;;5035449;28;19983;-49
2022/06/30 05:23:23;;;;;;;;;;;23.10;93.50;;;;;;5035156;28;19916;-49
2022/06/30 05:29:10;;;;;;;;;;;23.20;93.40;;;;;;5015433;28;20430;-51
2022/06/30 05:31:55;;;;;;;;;;;23.20;93.30;;;;;;5021871;28;20399;-49
2022/06/30 05:34:39;;;;;;;;;;;23.20;93.30;;;;;;5035006;28;19920;-49
2022/06/30 05:37:23;;;;;;;;;;;23.20;93.30;;;;;;5014205;28;19955;-55
2022/06/30 05:40:08;;;;;;;;;;;23.20;93.20;;;;;;5026183;28;19932;-49
2022/06/30 05:42:52;;;;;;;;;;;23.30;93.20;;;;;;5032002;28;19920;-49
2022/06/30 05:45:36;;;;;;;;;;;23.50;93.10;;;;;;5027811;28;19924;-51
2022/06/30 05:48:21;;;;;;;;;;;23.60;92.50;;;;;;5017517;28;19943;-53
2022/06/30 05:51:05;;;;;;;;;;;23.60;92.30;;;;;;5031737;28;19924;-54
2022/06/30 05:53:49;;;;;;;;;;;23.50;92.10;;;;;;5018439;28;20335;-53
2022/06/30 05:56:33;;;;;;;;;;;23.60;92.10;;;;;;5033099;28;19941;-51
2022/06/30 05:59:18;;;;;;;;;;;23.50;92.30;;;;;;5033854;28;20002;-49
2022/06/30 06:02:02;;;;;;;;;;;23.50;92.40;;;;;;5034351;28;19924;-52
2022/06/30 06:04:46;;;;;;;;;;;23.50;92.50;;;;;;5034513;28;19928;-51
2022/06/30 06:07:30;;;;;;;;;;;23.50;92.50;;;;;;5034126;28;20066;-48
2022/06/30 06:10:15;;;;;;;;;;;23.60;92.60;;;;;;5033871;28;19967;-48
2022/06/30 06:12:59;;;;;;;;;;;23.70;92.60;;;;;;5034290;28;19931;-52
2022/06/30 06:15:43;;;;;;;;;;;23.80;92.40;;;;;;5019015;28;19963;-52
2022/06/30 06:18:28;;;;;;;;;;;23.90;92.30;;;;;;5033760;28;19912;-54
2022/06/30 06:21:12;;;;;;;;;;;23.90;92.20;;;;;;5034745;28;19931;-51
2022/06/30 06:23:56;;;;;;;;;;;23.90;92.00;;;;;;5033894;28;19920;-54
2022/06/30 06:26:40;;;;;;;;;;;23.90;92.20;;;;;;5033693;28;20280;-51
2022/06/30 06:29:24;;;;;;;;;;;24.00;92.20;;;;;;5033912;28;19920;-51
2022/06/30 06:32:09;;;;;;;;;;;24.10;92.20;;;;;;5034321;28;20300;-52
2022/06/30 06:34:53;;;;;;;;;;;24.10;92.00;;;;;;5033801;28;19966;-52
2022/06/30 06:37:38;;;;;;;;;;;24.20;92.00;;;;;;5033849;28;19936;-50
2022/06/30 06:40:22;;;;;;;;;;;24.20;92.00;;;;;;5018671;28;20454;-52
2022/06/30 06:43:06;;;;;;;;;;;24.30;91.90;;;;;;5034106;28;19939;-52
2022/06/30 06:45:50;;;;;;;;;;;24.40;91.90;;;;;;5012747;28;20395;-50
2022/06/30 06:48:34;;;;;;;;;;;24.40;91.80;;;;;;5018029;28;20010;-48
2022/06/30 06:51:19;;;;;;;;;;;24.50;91.90;;;;;;5033077;28;19970;-54
2022/06/30 06:54:03;;;;;;;;;;;24.40;91.80;;;;;;5034602;28;19951;-52
2022/06/30 06:56:47;;;;;;;;;;;24.10;92.20;;;;;;5034111;28;19915;-49
2022/06/30 06:59:34;;;;;;;;;;;24.10;92.20;;;;;;5033165;28;19963;-50
2022/06/30 07:02:18;;;;;;;;;;;24.00;92.40;;;;;;5032295;28;20315;-54
2022/06/30 07:05:02;;;;;;;;;;;24.10;92.50;;;;;;5014020;28;20388;-54
2022/06/30 07:07:55;;;;;;;;;;;24.10;92.50;;;;;;5032415;28;19956;-47
2022/06/30 07:10:39;;;;;;;;;;;24.20;92.50;;;;;;5032263;28;19916;-51
2022/06/30 07:13:23;;;;;;;;;;;24.10;92.30;;;;;;5033515;28;19991;-52
2022/06/30 07:16:07;;;;;;;;;;;24.10;92.40;;;;;;5033041;28;19972;-48
2022/06/30 07:18:52;;;;;;;;;;;23.90;92.50;;;;;;5033949;28;19932;-53
2022/06/30 07:21:36;;;;;;;;;;;24.00;92.70;;;;;;5033319;28;20379;-51
2022/06/30 07:24:20;;;;;;;;;;;23.80;92.70;;;;;;5033682;28;19936;-50
2022/06/30 07:27:04;;;;;;;;;;;23.80;92.90;;;;;;5032278;28;20341;-51
2022/06/30 07:29:48;;;;;;;;;;;23.80;93.30;;;;;;5033728;28;19935;-49
2022/06/30 07:32:32;;;;;;;;;;;23.70;93.70;;;;;;5018203;28;19959;-50
2022/06/30 07:35:17;;;;;;;;;;;23.70;93.60;;;;;;5032800;28;19920;-50
2022/06/30 07:38:01;;;;;;;;;;;23.70;93.80;;;;;;5032489;28;20002;-48
2022/06/30 07:40:45;;;;;;;;;;;23.60;93.70;;;;;;5016574;28;19920;-46
2022/06/30 07:43:29;;;;;;;;;;;23.60;93.70;;;;;;5024897;28;19966;-49
2022/06/30 07:46:14;;;;;;;;;;;23.70;93.80;;;;;;5037269;28;20284;-52
2022/06/30 07:48:58;;;;;;;;;;;23.80;93.60;;;;;;5037024;28;19963;-52
2022/06/30 07:51:42;;;;;;;;;;;23.80;93.80;;;;;;5036825;28;19919;-47
2022/06/30 07:54:27;;;;;;;;;;;23.90;93.80;;;;;;5036802;28;19935;-50
2022/06/30 07:57:12;;;;;;;;;;;24.10;93.40;;;;;;5036475;28;19916;-52
2022/06/30 07:59:57;;;;;;;;;;;24.20;93.50;;;;;;5036841;28;19935;-47
2022/06/30 08:02:41;;;;;;;;;;;24.40;93.50;;;;;;5036740;28;19924;-50
2022/06/30 08:05:25;;;;;;;;;;;24.40;93.40;;;;;;5037158;28;19916;-46
2022/06/30 08:08:09;;;;;;;;;;;24.40;93.50;;;;;;5042984;28;19949;-46
2022/06/30 08:10:53;;;;;;;;;;;24.50;93.40;;;;;;5046513;28;20100;-52
2022/06/30 08:13:38;;;;;;;;;;;24.60;93.20;;;;;;5051851;28;19915;-51
2022/06/30 08:16:22;;;;;;;;;;;24.80;93.00;;;;;;5037561;28;19919;-53
2022/06/30 08:19:06;;;;;;;;;;;24.80;93.10;;;;;;5054898;28;19932;-52
2022/06/30 08:21:50;;;;;;;;;;;24.70;93.40;;;;;;5039940;28;20006;-53
2022/06/30 08:24:35;;;;;;;;;;;24.60;93.50;;;;;;5025636;28;19915;-54
2022/06/30 08:27:19;;;;;;;;;;;24.90;93.40;;;;;;5035730;28;19959;-55
2022/06/30 08:30:03;;;;;;;;;;;25.20;93.10;;;;;;5036510;28;19916;-54
2022/06/30 08:32:47;;;;;;;;;;;25.40;92.60;;;;;;5017145;28;19980;-52
2022/06/30 08:35:32;;;;;;;;;;;25.40;92.60;;;;;;5031273;28;20057;-53
2022/06/30 08:38:16;;;;;;;;;;;25.40;92.70;;;;;;5034513;28;19924;-50
2022/06/30 08:44:03;;;;;;;;;;;25.00;93.50;;;;;;5036271;28;19927;-57
2022/06/30 08:46:47;;;;;;;;;;;25.00;93.20;;;;;;5033910;28;19916;-51
2022/06/30 08:49:32;;;;;;;;;;;24.90;93.20;;;;;;5035317;28;19915;-55
2022/06/30 08:52:16;;;;;;;;;;;24.80;93.30;;;;;;5033734;28;19959;-51
2022/06/30 08:55:01;;;;;;;;;;;24.90;93.40;;;;;;5035674;28;19923;-54
2022/06/30 08:57:46;;;;;;;;;;;24.90;93.50;;;;;;5035793;28;19923;-53
2022/06/30 09:00:31;;;;;;;;;;;24.90;93.50;;;;;;5021104;28;19971;-50
2022/06/30 09:03:17;;;;;;;;;;;25.10;93.30;;;;;;5035981;28;19951;-52
2022/06/30 09:06:01;;;;;;;;;;;24.80;93.60;;;;;;5036145;28;19920;-50
2022/06/30 09:08:45;;;;;;;;;;;25.00;93.60;;;;;;5035960;28;20437;-52
2022/06/30 09:11:48;;;;;;;;;;;25.00;93.50;;;;;;5036214;28;19976;-50
2022/06/30 09:14:32;;;;;;;;;;;25.10;93.70;;;;;;5035449;28;20375;-53
2022/06/30 09:17:21;;;;;;;;;;;25.20;93.40;;;;;;5034607;28;19911;-53
2022/06/30 09:20:08;;;;;;;;;;;25.20;93.50;;;;;;5034447;28;20292;-52
2022/06/30 09:22:52;;;;;;;;;;;25.30;94.00;;;;;;5035357;28;20003;-54
2022/06/30 09:25:39;;;;;;;;;;;25.40;93.10;;;;;;5034876;28;19916;-49
2022/06/30 09:28:43;;;;;;;;;;;25.40;93.30;;;;;;5035077;28;19912;-54
2022/06/30 09:31:32;;;;;;;;;;;25.70;93.40;;;;;;5035314;28;19916;-51
2022/06/30 09:34:19;;;;;;;;;;;25.70;92.80;;;;;;5035876;28;20303;-49
2022/06/30 09:37:13;;;;;;;;;;;25.80;92.90;;;;;;5034684;28;19993;-50
2022/06/30 09:39:57;;;;;;;;;;;25.70;93.00;;;;;;5035461;28;19990;-53
2022/06/30 09:42:41;;;;;;;;;;;25.80;92.90;;;;;;5036846;28;19948;-50
2022/06/30 09:45:52;;;;;;;;;;;25.90;92.90;;;;;;5055116;28;19919;-54
2022/06/30 09:48:39;;;;;;;;;;;26.00;92.70;;;;;;5032249;28;21795;-57
2022/06/30 09:51:23;;;;;;;;;;;26.20;92.60;;;;;;5025819;28;19916;-51
2022/06/30 09:54:08;;;;;;;;;;;26.40;92.50;;;;;;5035328;28;19999;-49
2022/06/30 09:57:02;;;;;;;;;;;26.60;92.20;;;;;;5032784;28;19935;-49
2022/06/30 09:59:46;;;;;;;;;;;26.70;91.90;;;;;;5029793;28;19935;-53
2022/06/30 10:02:32;;;;;;;;;;;26.50;91.60;;;;;;5032426;28;19959;-48
2022/06/30 10:05:17;;;;;;;;;;;26.60;91.70;;;;;;5040817;28;19940;-50
2022/06/30 10:08:01;;;;;;;;;;;26.60;91.90;;;;;;5031174;28;19916;-50
2022/06/30 10:10:45;;;;;;;;;;;26.60;91.90;;;;;;5035297;28;19916;-51
2022/06/30 10:13:32;;;;;;;;;;;26.80;91.90;;;;;;5032160;28;19956;-54
2022/06/30 10:16:17;;;;;;;;;;;26.70;92.00;;;;;;5030202;28;19967;-53
2022/06/30 10:19:01;;;;;;;;;;;26.60;92.10;;;;;;5030662;28;19916;-50
2022/06/30 10:21:45;;;;;;;;;;;26.70;91.90;;;;;;5033578;28;19960;-50
2022/06/30 10:24:29;;;;;;;;;;;26.90;91.80;;;;;;5033577;28;19916;-47
2022/06/30 10:27:15;;;;;;;;;;;27.10;91.50;;;;;;5035864;28;19916;-51
2022/06/30 10:30:01;;;;;;;;;;;27.30;91.40;;;;;;5038343;28;20333;-54
2022/06/30 10:33:06;;;;;;;;;;;27.50;91.10;;;;;;5038508;28;20390;-55
2022/06/30 10:35:51;;;;;;;;;;;27.30;91.30;;;;;;5019790;28;20353;-51
2022/06/30 10:38:46;;;;;;;;;;;27.20;91.10;;;;;;5027647;28;19920;-51
2022/06/30 10:41:31;;;;;;;;;;;27.00;91.20;;;;;;5034903;28;19948;-48
2022/06/30 10:44:24;;;;;;;;;;;27.00;91.40;;;;;;5048798;28;19916;-53
2022/06/30 10:47:09;;;;;;;;;;;27.30;90.80;;;;;;5036364;28;20379;-50
2022/06/30 10:49:54;;;;;;;;;;;27.50;90.50;;;;;;5034524;28;19912;-51
2022/06/30 10:52:38;;;;;;;;;;;27.50;90.30;;;;;;4999427;28;19924;-51
2022/06/30 10:55:23;;;;;;;;;;;27.60;90.20;;;;;;5015285;28;19983;-50
2022/06/30 10:58:07;;;;;;;;;;;27.70;90.10;;;;;;5033253;28;19916;-54
2022/06/30 11:00:55;;;;;;;;;;;27.90;90.10;;;;;;5035613;28;19982;-50
2022/06/30 11:03:39;;;;;;;;;;;28.10;89.20;;;;;;5034728;28;19987;-52
2022/06/30 11:06:26;;;;;;;;;;;28.30;88.70;;;;;;5034995;28;20375;-51
2022/06/30 11:09:11;;;;;;;;;;;28.20;89.10;;;;;;5033346;28;20033;-48
2022/06/30 11:11:55;;;;;;;;;;;28.40;88.90;;;;;;5030495;28;20316;-49
2022/06/30 11:14:48;;;;;;;;;;;28.50;87.80;;;;;;5036850;28;19920;-54
2022/06/30 11:17:35;;;;;;;;;;;28.60;87.00;;;;;;5054086;28;19950;-51
2022/06/30 11:20:19;;;;;;;;;;;28.60;87.00;;;;;;5037593;28;19912;-50
2022/06/30 11:23:04;;;;;;;;;;;28.50;87.00;;;;;;5033400;28;19924;-52
2022/06/30 11:28:53;;;;;;;;;;;28.20;87.60;;;;;;5033124;28;19959;-50
2022/06/30 11:31:38;;;;;;;;;;;28.50;88.10;;;;;;5033414;28;19963;-50
2022/06/30 11:34:22;;;;;;;;;;;28.60;87.50;;;;;;5038511;28;19915;-55
2022/06/30 11:37:09;;;;;;;;;;;28.60;87.40;;;;;;5032904;28;19920;-53
2022/06/30 11:40:00;;;;;;;;;;;28.70;87.40;;;;;;5031846;28;19920;-54
2022/06/30 11:42:45;;;;;;;;;;;28.80;86.40;;;;;;5035788;28;20288;-54
2022/06/30 11:45:30;;;;;;;;;;;28.60;87.30;;;;;;4998351;28;19960;-50
2022/06/30 11:48:15;;;;;;;;;;;28.90;86.50;;;;;;5015646;28;19980;-51
2022/06/30 11:50:59;;;;;;;;;;;29.00;86.20;;;;;;5033254;28;20027;-48
2022/06/30 11:53:44;;;;;;;;;;;29.00;85.80;;;;;;5032578;28;20323;-49
2022/06/30 11:56:42;;;;;;;;;;;28.80;86.30;;;;;;5032664;28;20051;-49
2022/06/30 11:59:26;;;;;;;;;;;28.70;86.10;;;;;;5033968;28;20044;-54
2022/06/30 12:02:10;;;;;;;;;;;28.50;86.40;;;;;;5032596;28;19960;-49
2022/06/30 12:04:55;;;;;;;;;;;28.40;87.20;;;;;;5031029;28;20054;-54
2022/06/30 12:07:40;;;;;;;;;;;28.50;86.90;;;;;;5030983;28;19971;-54
2022/06/30 12:10:26;;;;;;;;;;;28.60;87.00;;;;;;5031165;28;19955;-52
2022/06/30 12:13:12;;;;;;;;;;;28.60;86.60;;;;;;5030473;28;19959;-49
2022/06/30 12:15:57;;;;;;;;;;;28.60;86.30;;;;;;5011061;28;19912;-52
2022/06/30 12:18:42;;;;;;;;;;;28.90;85.70;;;;;;5015975;28;19924;-52
2022/06/30 12:21:26;;;;;;;;;;;29.00;85.30;;;;;;5031216;28;19956;-51
2022/06/30 12:24:10;;;;;;;;;;;29.10;85.00;;;;;;5030509;28;19924;-48
2022/06/30 12:26:57;;;;;;;;;;;29.20;85.10;;;;;;5030341;28;20343;-50
2022/06/30 12:29:41;;;;;;;;;;;29.40;85.00;;;;;;5033904;28;19936;-52
2022/06/30 12:32:25;;;;;;;;;;;29.40;84.40;;;;;;5034185;28;19920;-52
2022/06/30 12:35:10;;;;;;;;;;;29.40;84.50;;;;;;5033693;28;19998;-51
2022/06/30 12:37:56;;;;;;;;;;;29.50;83.90;;;;;;5033904;28;19920;-50
2022/06/30 12:40:40;;;;;;;;;;;29.50;83.60;;;;;;5034957;28;20338;-50
2022/06/30 12:43:25;;;;;;;;;;;29.40;83.90;;;;;;5035121;28;20273;-49
2022/06/30 12:46:10;;;;;;;;;;;29.30;85.00;;;;;;5034752;28;19920;-53
2022/06/30 12:48:54;;;;;;;;;;;29.40;85.70;;;;;;5033951;28;19920;-50
2022/06/30 12:51:40;;;;;;;;;;;29.70;84.50;;;;;;5034283;28;19940;-51
2022/06/30 12:54:25;;;;;;;;;;;29.90;84.10;;;;;;5033701;28;20559;-49
2022/06/30 12:57:09;;;;;;;;;;;30.00;83.10;;;;;;5033425;28;19916;-52
2022/06/30 12:59:54;;;;;;;;;;;29.70;83.00;;;;;;5033658;28;19936;-48
2022/06/30 13:02:41;;;;;;;;;;;29.70;83.90;;;;;;5034013;28;19916;-47
2022/06/30 13:05:26;;;;;;;;;;;29.70;84.40;;;;;;5033560;28;19916;-51
2022/06/30 13:08:10;;;;;;;;;;;30.00;83.50;;;;;;5033361;28;20297;-51
2022/06/30 13:11:06;;;;;;;;;;;30.40;83.00;;;;;;5013937;28;20013;-50
2022/06/30 13:13:51;;;;;;;;;;;30.70;81.90;;;;;;5000802;28;20007;-53
2022/06/30 13:16:35;;;;;;;;;;;30.90;80.60;;;;;;5015105;28;19917;-52
2022/06/30 13:19:20;;;;;;;;;;;30.90;80.50;;;;;;5033646;28;19958;-49
2022/06/30 13:22:05;;;;;;;;;;;31.20;80.10;;;;;;5037354;28;19932;-51
2022/06/30 13:24:49;;;;;;;;;;;31.10;79.80;;;;;;5033396;28;19916;-55
2022/06/30 13:27:33;;;;;;;;;;;31.40;80.10;;;;;;5019690;28;19966;-56
2022/06/30 13:30:17;;;;;;;;;;;31.50;79.00;;;;;;5036705;28;19923;-53
2022/06/30 13:33:02;;;;;;;;;;;31.70;78.40;;;;;;5021004;28;19928;-58
2022/06/30 13:35:46;;;;;;;;;;;31.60;78.20;;;;;;5035289;28;19916;-53
2022/06/30 13:38:31;;;;;;;;;;;31.80;77.30;;;;;;5033911;28;20634;-50
2022/06/30 13:41:15;;;;;;;;;;;31.70;77.40;;;;;;5035858;28;19987;-48
2022/06/30 13:44:00;;;;;;;;;;;32.00;77.40;;;;;;5023474;28;19920;-48
2022/06/30 13:46:44;;;;;;;;;;;32.20;76.80;;;;;;5034352;28;19920;-51
2022/06/30 13:49:28;;;;;;;;;;;32.40;76.40;;;;;;5035305;28;19951;-55
2022/06/30 13:52:13;;;;;;;;;;;32.60;75.40;;;;;;5035270;28;19962;-49
2022/06/30 13:54:57;;;;;;;;;;;32.80;75.00;;;;;;5035793;28;19951;-53
2022/06/30 13:57:41;;;;;;;;;;;33.00;74.20;;;;;;5035353;28;20423;-51
2022/06/30 14:00:25;;;;;;;;;;;32.70;74.60;;;;;;5002223;28;19919;-49
2022/06/30 14:03:10;;;;;;;;;;;32.50;74.20;;;;;;5019702;28;19936;-48
2022/06/30 14:05:54;;;;;;;;;;;32.40;75.10;;;;;;5035403;28;19912;-54
2022/06/30 14:08:38;;;;;;;;;;;32.30;75.30;;;;;;5035162;28;19960;-51
2022/06/30 14:11:22;;;;;;;;;;;32.40;75.50;;;;;;5035451;28;19911;-52
2022/06/30 14:14:06;;;;;;;;;;;32.40;74.60;;;;;;5019864;28;20010;-49
2022/06/30 14:16:52;;;;;;;;;;;32.00;74.70;;;;;;5052127;28;19923;-49
2022/06/30 14:19:36;;;;;;;;;;;32.10;74.80;;;;;;5055115;28;20198;-47
2022/06/30 14:22:20;;;;;;;;;;;32.20;75.10;;;;;;5053741;28;20649;-50
2022/06/30 14:25:05;;;;;;;;;;;32.10;74.70;;;;;;5033620;28;19924;-53
2022/06/30 14:27:50;;;;;;;;;;;31.90;74.90;;;;;;5033417;28;19920;-53
2022/06/30 14:30:34;;;;;;;;;;;31.60;74.70;;;;;;5035059;28;19920;-47
2022/06/30 14:33:19;;;;;;;;;;;31.30;75.30;;;;;;5014778;28;19920;-51
2022/06/30 14:36:03;;;;;;;;;;;31.10;75.80;;;;;;5026204;28;19979;-53
2022/06/30 14:38:47;;;;;;;;;;;30.90;76.00;;;;;;5033872;28;19997;-50
2022/06/30 14:44:35;;;;;;;;;;;30.60;76.20;;;;;;5050486;28;19970;-54
2022/06/30 14:47:19;;;;;;;;;;;30.50;76.70;;;;;;5013353;28;19925;-50
2022/06/30 14:50:04;;;;;;;;;;;30.30;77.30;;;;;;5016110;28;19916;-53
2022/06/30 14:52:49;;;;;;;;;;;30.20;77.60;;;;;;5033344;28;19984;-49
2022/06/30 14:55:33;;;;;;;;;;;29.90;77.60;;;;;;5032207;28;19936;-51
2022/06/30 14:58:18;;;;;;;;;;;29.80;78.20;;;;;;5017812;28;20055;-49
2022/06/30 15:01:02;;;;;;;;;;;29.70;78.60;;;;;;5033774;28;20001;-48
2022/06/30 15:03:46;;;;;;;;;;;29.60;78.90;;;;;;5033196;28;19936;-49
2022/06/30 15:06:30;;;;;;;;;;;29.50;78.90;;;;;;5033117;28;20291;-49
2022/06/30 15:09:15;;;;;;;;;;;29.50;79.10;;;;;;5033384;28;19919;-48
2022/06/30 15:11:59;;;;;;;;;;;29.40;79.40;;;;;;5018366;28;19935;-54
2022/06/30 15:14:43;;;;;;;;;;;29.30;80.00;;;;;;5033824;28;19920;-51
2022/06/30 15:17:27;;;;;;;;;;;29.40;80.00;;;;;;5032829;28;19984;-54
2022/06/30 15:20:15;;;;;;;;;;;29.40;79.80;;;;;;5033558;28;19931;-50
2022/06/30 15:26:05;;;;;;;;;;;29.50;80.20;;;;;;5052053;28;20375;-48
2022/06/30 15:28:49;;;;;;;;;;;29.40;80.90;;;;;;5049713;28;19932;-52
2022/06/30 15:31:34;;;;;;;;;;;29.40;81.30;;;;;;5033497;28;19920;-52
2022/06/30 15:34:19;;;;;;;;;;;29.40;81.30;;;;;;5033619;28;19978;-50
2022/06/30 15:37:03;;;;;;;;;;;29.30;81.30;;;;;;5032568;28;20006;-53
2022/06/30 15:39:47;;;;;;;;;;;29.40;81.10;;;;;;5032903;28;20434;-54
2022/06/30 15:42:31;;;;;;;;;;;29.40;81.30;;;;;;5033154;28;19974;-52
2022/06/30 15:45:20;;;;;;;;;;;29.40;81.40;;;;;;5027257;28;19916;-52
2022/06/30 15:48:05;;;;;;;;;;;29.40;81.60;;;;;;5044753;28;19916;-55
2022/06/30 15:50:49;;;;;;;;;;;29.40;81.80;;;;;;5038434;28;20414;-53
2022/06/30 15:53:33;;;;;;;;;;;29.40;81.60;;;;;;5036612;28;20432;-48
2022/06/30 15:56:17;;;;;;;;;;;29.40;81.50;;;;;;5033206;28;19916;-49
2022/06/30 15:59:01;;;;;;;;;;;29.40;81.30;;;;;;5033957;28;20296;-48
2022/06/30 16:01:46;;;;;;;;;;;29.50;81.10;;;;;;5036688;28;19911;-51
2022/06/30 16:04:31;;;;;;;;;;;29.50;81.20;;;;;;5017926;28;19960;-54
2022/06/30 16:07:15;;;;;;;;;;;29.60;81.10;;;;;;5030002;28;19942;-46
2022/06/30 16:09:59;;;;;;;;;;;29.80;80.80;;;;;;5036591;28;19925;-50
2022/06/30 16:12:44;;;;;;;;;;;30.30;80.50;;;;;;5035262;28;19939;-50
2022/06/30 16:15:28;;;;;;;;;;;31.10;79.00;;;;;;5035350;28;19951;-49
2022/06/30 16:18:13;;;;;;;;;;;31.90;77.70;;;;;;5036461;28;19916;-51
2022/06/30 16:20:57;;;;;;;;;;;32.60;76.50;;;;;;5037090;28;19936;-49